createdAt,value
2019-04-20T00:03:30.010Z,99.90
2019-04-20T00:08:36.181Z,99.90
2019-04-20T00:13:47.761Z,99.90
2019-04-20T00:18:50.286Z,99.90
2019-04-20T00:23:54.804Z,99.90
2019-04-20T00:29:20.174Z,99.90
2019-04-20T00:34:13.936Z,99.90
2019-04-20T00:39:14.976Z,99.90
2019-04-20T00:44:24.224Z,99.90
2019-04-20T00:49:38.921Z,99.90
2019-04-20T00:54:32.551Z,99.90
2019-04-20T01:00:03.106Z,99.90
2019-04-20T01:05:04.015Z,99.90
2019-04-20T01:09:58.819Z,99.90
2019-04-20T01:15:06.312Z,99.90
2019-04-20T01:20:12.768Z,99.90
2019-04-20T01:25:26.367Z,99.90
2019-04-20T01:30:32.228Z,99.90
2019-04-20T01:35:48.024Z,99.90
2019-04-20T01:40:42.207Z,99.90
2019-04-20T01:45:49.016Z,99.90
2019-04-20T01:51:02.751Z,99.90
2019-04-20T01:56:17.096Z,99.90
2019-04-20T02:01:35.450Z,99.90
2019-04-20T02:06:39.962Z,99.90
2019-04-20T02:11:48.416Z,99.90
2019-04-20T02:17:01.662Z,99.90
2019-04-20T02:22:09.791Z,99.90
2019-04-20T02:27:04.150Z,99.90
2019-04-20T02:32:38.040Z,99.90
2019-04-20T02:43:25.019Z,99.90
2019-04-20T02:48:14.071Z,99.90
2019-04-20T02:53:36.492Z,99.90
2019-04-20T02:58:23.359Z,99.90
2019-04-20T03:03:13.472Z,99.90
2019-04-20T03:08:26.284Z,99.90
2019-04-20T03:13:39.258Z,99.90
2019-04-20T03:18:40.930Z,99.90
2019-04-20T03:23:50.080Z,99.90
2019-04-20T03:29:05.589Z,99.90
2019-04-20T03:34:55.589Z,99.90
2019-04-20T03:39:23.233Z,99.90
2019-04-20T03:44:17.634Z,99.90
2019-04-20T03:49:43.889Z,99.90
2019-04-20T03:54:55.262Z,99.90
2019-04-20T04:00:35.934Z,99.90
2019-04-20T04:06:07.838Z,99.90
2019-04-20T04:11:16.053Z,99.90
2019-04-20T04:16:10.226Z,99.90
2019-04-20T04:21:21.297Z,99.90
2019-04-20T04:26:37.846Z,99.90
2019-04-20T04:31:45.721Z,99.90
2019-04-20T04:36:53.758Z,99.90
2019-04-20T04:42:07.043Z,99.90
2019-04-20T04:46:53.386Z,99.90
2019-04-20T04:51:59.299Z,99.90
2019-04-20T04:57:03.369Z,99.90
2019-04-20T05:02:08.025Z,99.90
2019-04-20T05:07:38.338Z,99.90
2019-04-20T05:12:35.039Z,99.90
2019-04-20T05:18:01.839Z,99.90
2019-04-20T05:23:21.007Z,99.90
2019-04-20T05:28:27.615Z,99.90
2019-04-20T05:33:31.479Z,99.90
2019-04-20T05:38:47.133Z,99.90
2019-04-20T05:44:19.312Z,99.90
2019-04-20T05:49:30.205Z,99.90
2019-04-20T05:54:42.943Z,99.90
2019-04-20T05:59:51.587Z,99.90
2019-04-20T06:05:00.002Z,99.90
2019-04-20T06:09:59.682Z,99.90
2019-04-20T06:15:22.308Z,99.90
2019-04-20T06:20:36.685Z,99.90
2019-04-20T06:26:11.128Z,99.90
2019-04-20T06:30:52.121Z,99.90
2019-04-20T06:36:29.279Z,94.20
2019-04-20T06:41:30.209Z,65.90
2019-04-20T06:46:29.186Z,59.10
2019-04-20T06:51:47.368Z,55.90
2019-04-20T06:57:10.259Z,53.30
2019-04-20T07:02:27.433Z,51.80
2019-04-20T07:07:28.007Z,49.30
2019-04-20T07:12:29.582Z,49.80
2019-04-20T07:17:53.289Z,50.30
2019-04-20T07:23:09.508Z,49.00
2019-04-20T07:28:05.864Z,47.20
2019-04-20T07:33:08.755Z,48.30
2019-04-20T07:43:19.739Z,46.90
2019-04-20T07:48:27.679Z,48.30
2019-04-20T07:53:30.550Z,47.90
2019-04-20T07:58:30.522Z,48.40
2019-04-20T08:03:55.645Z,50.70
2019-04-20T08:09:05.776Z,47.70
2019-04-20T08:14:22.669Z,46.90
2019-04-20T08:19:23.023Z,46.80
2019-04-20T08:24:25.564Z,44.60
2019-04-20T08:29:41.732Z,46.00
2019-04-20T08:34:50.759Z,45.60
2019-04-20T08:40:01.571Z,47.40
2019-04-20T09:09:37.560Z,47.20
2019-04-20T09:14:28.052Z,45.80
2019-04-20T09:39:08.360Z,46.10
2019-04-20T09:44:04.650Z,46.30
2019-04-20T09:49:20.081Z,47.10
2019-04-20T09:54:35.869Z,48.30
2019-04-20T09:59:45.077Z,47.10
2019-04-20T10:04:29.227Z,47.90
2019-04-20T10:09:38.196Z,49.50
2019-04-20T10:14:40.745Z,51.30
2019-04-20T10:19:46.595Z,50.50
2019-04-20T10:24:52.678Z,52.00
2019-04-20T10:30:01.127Z,53.40
2019-04-20T10:35:06.463Z,52.70
2019-04-20T10:40:13.463Z,53.40
2019-04-20T10:45:19.314Z,53.80
2019-04-20T10:50:24.989Z,54.50
2019-04-20T10:55:29.674Z,52.30
2019-04-20T11:00:45.921Z,54.20
2019-04-20T11:05:50.966Z,55.70
2019-04-20T11:11:07.149Z,51.00
2019-04-20T11:16:02.511Z,50.90
2019-04-20T11:21:07.324Z,51.70
2019-04-20T11:26:11.997Z,48.40
2019-04-20T11:31:16.957Z,48.60
2019-04-20T11:36:23.190Z,45.20
2019-04-20T11:41:31.042Z,46.20
2019-04-20T11:46:36.579Z,47.00
2019-04-20T11:51:41.700Z,46.40
2019-04-20T11:56:47.280Z,44.20
2019-04-20T12:02:30.226Z,44.20
2019-04-20T12:07:35.238Z,42.30
2019-04-20T12:12:44.352Z,47.50
2019-04-20T12:17:47.340Z,46.20
2019-04-20T12:22:52.583Z,45.50
2019-04-20T12:28:00.570Z,47.40
2019-04-20T12:33:05.608Z,46.30
2019-04-20T12:38:10.657Z,46.00
2019-04-20T12:43:15.331Z,46.00
2019-04-20T12:48:20.068Z,44.90
2019-04-20T12:53:24.608Z,46.50
2019-04-20T12:58:30.546Z,45.50
2019-04-20T13:03:35.300Z,46.60
2019-04-20T13:08:44.402Z,45.70
2019-04-20T13:14:22.158Z,45.00
2019-04-20T13:19:29.950Z,45.30
2019-04-20T13:24:36.974Z,45.70
2019-04-20T13:29:42.784Z,45.00
2019-04-20T13:34:49.737Z,46.20
2019-04-20T13:39:54.756Z,48.60
2019-04-20T13:44:59.231Z,45.10
2019-04-20T13:50:05.215Z,44.30
2019-04-20T13:55:12.761Z,44.10
2019-04-20T14:00:34.321Z,44.20
2019-04-20T14:05:38.891Z,44.80
2019-04-20T14:10:45.093Z,44.80
2019-04-20T14:15:51.242Z,43.30
2019-04-20T14:20:56.312Z,43.00
2019-04-20T14:26:03.110Z,44.20
2019-04-20T14:31:07.878Z,42.80
2019-04-20T14:36:12.844Z,44.00
2019-04-20T14:41:18.362Z,43.00
2019-04-20T14:46:23.132Z,44.30
2019-04-20T14:51:27.975Z,42.50
2019-04-20T14:56:33.617Z,42.50
2019-04-20T15:01:40.978Z,44.50
2019-04-20T15:06:46.568Z,44.00
2019-04-20T15:11:51.181Z,42.90
2019-04-20T15:16:56.381Z,44.10
2019-04-20T15:22:03.261Z,46.20
2019-04-20T15:27:08.015Z,44.80
2019-04-20T15:32:13.245Z,45.40
2019-04-20T15:37:20.283Z,44.90
2019-04-20T15:42:25.385Z,45.40
2019-04-20T15:47:30.349Z,44.40
2019-04-20T15:52:40.759Z,44.50
2019-04-20T15:57:42.535Z,44.50
2019-04-20T16:02:57.265Z,45.40
2019-04-20T16:08:18.703Z,45.30
2019-04-20T16:13:29.809Z,45.10
2019-04-20T16:18:30.886Z,46.70
2019-04-20T16:23:43.865Z,45.90
2019-04-20T16:28:50.149Z,45.20
2019-04-20T16:33:58.510Z,45.90
2019-04-20T16:39:03.686Z,46.90
2019-04-20T16:44:09.316Z,46.00
2019-04-20T16:49:14.776Z,45.80
2019-04-20T16:54:21.791Z,45.70
2019-04-20T16:59:28.136Z,46.50
2019-04-20T17:04:34.391Z,46.80
2019-04-20T17:09:41.949Z,47.40
2019-04-20T17:14:47.648Z,46.50
2019-04-20T17:19:53.511Z,46.90
2019-04-20T17:24:58.382Z,46.90
2019-04-20T17:30:27.096Z,45.30
2019-04-20T17:35:43.581Z,46.20
2019-04-20T17:41:01.539Z,46.80
2019-04-20T17:45:57.861Z,47.30
2019-04-20T17:51:16.893Z,47.50
2019-04-20T17:56:05.122Z,46.70
2019-04-20T18:01:56.471Z,47.20
2019-04-20T18:07:08.938Z,47.40
2019-04-20T18:12:03.309Z,47.80
2019-04-20T18:17:29.366Z,49.20
2019-04-20T18:22:21.530Z,49.20
2019-04-20T18:27:41.467Z,48.80
2019-04-20T18:32:35.854Z,50.00
2019-04-20T18:37:44.076Z,50.30
2019-04-20T18:43:00.029Z,51.50
2019-04-20T18:48:18.750Z,52.90
2019-04-20T18:53:03.461Z,54.80
2019-04-20T18:58:09.168Z,57.40
2019-04-20T19:03:20.240Z,59.40
2019-04-20T19:08:31.277Z,61.10
2019-04-20T19:13:47.774Z,61.90
2019-04-20T19:19:20.167Z,62.50
2019-04-20T19:24:18.314Z,64.70
2019-04-20T19:29:30.999Z,66.80
2019-04-20T19:34:41.781Z,65.80
2019-04-20T19:39:49.419Z,65.60
2019-04-20T19:44:59.556Z,65.00
2019-04-20T19:50:20.720Z,64.50
2019-04-20T19:55:16.201Z,61.40
2019-04-20T20:00:03.830Z,63.20
2019-04-20T20:05:12.134Z,65.90
2019-04-20T20:10:16.695Z,68.20
2019-04-20T20:15:29.653Z,67.20
2019-04-20T20:20:47.367Z,66.10
2019-04-20T20:25:43.164Z,63.00
2019-04-20T20:30:56.786Z,61.50
2019-04-20T20:36:01.977Z,60.50
2019-04-20T20:41:08.758Z,60.00
2019-04-20T20:46:19.815Z,58.80
2019-04-20T20:51:39.173Z,60.80
2019-04-20T20:56:25.034Z,63.70
2019-04-20T21:01:37.822Z,62.70
2019-04-20T21:06:34.773Z,61.70
2019-04-20T21:11:40.160Z,62.00
2019-04-20T21:16:53.502Z,62.60
2019-04-20T21:22:00.018Z,62.70
2019-04-20T21:27:00.663Z,62.20
2019-04-20T21:32:11.862Z,62.20
2019-04-20T21:37:17.104Z,63.10
2019-04-20T21:42:21.628Z,65.70
2019-04-20T21:47:31.435Z,65.90
2019-04-20T21:52:39.223Z,66.30
2019-04-20T21:57:44.702Z,67.00
2019-04-20T22:02:53.052Z,67.50
2019-04-20T22:07:50.479Z,66.50
2019-04-20T22:12:59.670Z,65.50
2019-04-20T22:18:09.122Z,70.00
2019-04-20T22:23:23.288Z,72.90
2019-04-20T22:28:16.507Z,72.50
2019-04-20T22:33:29.825Z,67.50
2019-04-20T22:38:37.578Z,65.80
2019-04-20T22:43:42.201Z,65.20
2019-04-20T22:48:55.247Z,66.20
2019-04-20T22:54:10.982Z,66.80
2019-04-20T22:59:06.783Z,66.40
2019-04-20T23:04:06.839Z,68.20
2019-04-20T23:09:14.710Z,73.60
2019-04-20T23:14:18.321Z,75.30
2019-04-20T23:19:34.515Z,77.50
2019-04-20T23:24:31.088Z,77.60
2019-04-20T23:29:39.507Z,80.00
2019-04-20T23:34:42.628Z,81.70
2019-04-20T23:39:50.720Z,82.00
2019-04-20T23:45:03.720Z,81.00
2019-04-20T23:50:30.656Z,84.20
2019-04-20T23:55:19.010Z,88.70
